Athlestan, Iowa
Current Conditions -  °F | °C
As of 3:15 PM on Wednesday 26 Nov 2014 (Local Time) from KCSQ Reporting Station
Overcast Overcast  
Wind Chill: 15°   Ceiling: 700
Heat Index: 28°   Visibility: 7mi
Dew Point: 27°   Wind: 21mph
Humidity: 93%   Direction: 340°NNW
Pressure: 30.07"   Gusts: 30mph
Location:  40.6485°N, 94.5286°W
Report Text: KCSQ 262115Z AUTO 34018G26KT 7SM OVC007 M02/M03 A3007 RMK AO2
Loading
Personal Weather Stations






























Interactive Weather Map New forecast layout! Learn more

10-Day Weather Forecast

Advertisements
Track Severe Weather on mobile